Time;durP1;ratioP1;P1;durP2;ratioP2;P2;SDS_P1;SDS_P2;PMS_P1;PMS_P2;Temp;Humidity;BMP_temperature;BMP_pressure;BME280_temperature;BME280_humidity;BME280_pressure;Samples;Min_cycle;Max_cycle;Signal;HPM_P1;HPM_P2
2022/10/19 00:01:46;;;;;;;;;;;20.10;73.20;;;;;;5031044;27;89601;-58
2022/10/19 00:04:11;;;;;;;;;;;20.10;73.20;;;;;;5038793;27;96751;-59
2022/10/19 00:06:37;;;;;;;;;;;20.10;73.20;;;;;;5035185;27;90194;-58
2022/10/19 00:09:04;;;;;;;;;;;20.10;73.10;;;;;;5033598;27;90223;-59
2022/10/19 00:11:31;;;;;;;;;;;20.10;73.10;;;;;;5039003;27;97377;-59
2022/10/19 00:13:57;;;;;;;;;;;20.10;73.10;;;;;;5042551;27;90476;-59
2022/10/19 00:16:23;;;;;;;;;;;20.10;73.10;;;;;;5044156;27;90418;-59
2022/10/19 00:18:49;;;;;;;;;;;20.10;73.10;;;;;;5039661;27;95045;-58
2022/10/19 00:21:16;;;;;;;;;;;20.10;73.10;;;;;;5026513;27;90430;-59
2022/10/19 00:23:42;;;;;;;;;;;20.10;73.10;;;;;;5021783;27;91148;-57
2022/10/19 00:26:08;;;;;;;;;;;20.00;73.00;;;;;;5042890;27;90405;-58
2022/10/19 00:28:33;;;;;;;;;;;20.10;73.10;;;;;;5040410;27;92276;-59
2022/10/19 00:31:07;;;;;;;;;;;20.10;73.00;;;;;;5028001;27;89642;-59
2022/10/19 00:33:32;;;;;;;;;;;20.00;72.90;;;;;;5038792;27;90650;-59
2022/10/19 00:35:58;;;;;;;;;;;20.10;72.90;;;;;;5040645;27;90638;-59
2022/10/19 00:38:23;;;;;;;;;;;20.00;72.90;;;;;;5037787;27;91583;-58
2022/10/19 00:40:49;;;;;;;;;;;20.00;72.80;;;;;;5045053;27;89127;-59
2022/10/19 00:43:15;;;;;;;;;;;20.00;72.90;;;;;;5043901;27;90484;-59
2022/10/19 00:45:41;;;;;;;;;;;20.00;72.80;;;;;;5039802;27;89780;-60
2022/10/19 00:48:08;;;;;;;;;;;20.00;72.80;;;;;;5040109;27;91372;-59
2022/10/19 00:50:34;;;;;;;;;;;20.00;72.80;;;;;;5044512;27;91308;-59
2022/10/19 00:52:59;;;;;;;;;;;20.00;72.80;;;;;;5034768;27;89926;-58
2022/10/19 00:55:25;;;;;;;;;;;20.00;72.70;;;;;;5034179;27;90143;-59
2022/10/19 00:57:51;;;;;;;;;;;20.00;72.70;;;;;;5039311;27;89870;-59
2022/10/19 01:00:16;;;;;;;;;;;20.00;72.70;;;;;;5037994;27;90112;-58
2022/10/19 01:02:42;;;;;;;;;;;20.00;72.70;;;;;;5047078;27;90182;-59
2022/10/19 01:05:07;;;;;;;;;;;20.00;72.70;;;;;;5032914;27;89877;-59
2022/10/19 01:07:33;;;;;;;;;;;20.00;72.70;;;;;;5052610;27;89982;-60
2022/10/19 01:09:59;;;;;;;;;;;19.90;72.70;;;;;;5044979;27;90562;-60
2022/10/19 01:12:43;;;;;;;;;;;20.00;72.60;;;;;;5050550;27;90947;-58
2022/10/19 01:15:09;;;;;;;;;;;20.00;72.60;;;;;;5044887;27;94852;-59
2022/10/19 01:17:49;;;;;;;;;;;20.00;72.50;;;;;;5043238;27;96673;-59
2022/10/19 01:20:17;;;;;;;;;;;19.90;72.50;;;;;;5037679;27;91431;-59
2022/10/19 01:22:49;;;;;;;;;;;19.90;72.50;;;;;;5048335;27;90368;-59
2022/10/19 01:25:20;;;;;;;;;;;20.00;72.50;;;;;;5038670;27;90263;-57
2022/10/19 01:28:06;;;;;;;;;;;19.90;72.50;;;;;;5035133;27;90379;-59
2022/10/19 01:30:32;;;;;;;;;;;19.90;72.50;;;;;;5030535;27;93725;-59
2022/10/19 01:32:57;;;;;;;;;;;19.90;72.40;;;;;;5027562;27;89970;-59
2022/10/19 01:35:39;;;;;;;;;;;19.90;72.40;;;;;;5038444;27;90977;-60
2022/10/19 01:38:10;;;;;;;;;;;19.90;72.40;;;;;;5046740;27;91137;-59
2022/10/19 01:40:42;;;;;;;;;;;19.90;72.50;;;;;;5044937;27;89719;-58
2022/10/19 01:43:12;;;;;;;;;;;19.90;72.40;;;;;;5040030;27;92201;-59
2022/10/19 01:45:41;;;;;;;;;;;19.90;72.30;;;;;;5033989;27;94901;-57
2022/10/19 01:48:13;;;;;;;;;;;19.90;72.30;;;;;;5045165;27;91837;-59
2022/10/19 01:50:43;;;;;;;;;;;19.90;72.30;;;;;;5032681;27;91073;-59
2022/10/19 01:53:10;;;;;;;;;;;19.90;72.40;;;;;;5035548;27;90147;-57
2022/10/19 01:55:38;;;;;;;;;;;19.90;72.30;;;;;;5042695;27;92062;-59
2022/10/19 01:58:06;;;;;;;;;;;19.90;72.30;;;;;;5048211;27;92291;-60
2022/10/19 02:00:34;;;;;;;;;;;19.90;72.30;;;;;;5044265;27;90219;-58
2022/10/19 02:02:59;;;;;;;;;;;19.90;72.20;;;;;;5040686;27;92096;-59
2022/10/19 02:05:27;;;;;;;;;;;19.90;72.20;;;;;;5028486;27;90877;-59
2022/10/19 02:07:56;;;;;;;;;;;19.90;72.20;;;;;;5048778;27;90198;-59
2022/10/19 02:10:23;;;;;;;;;;;19.90;72.20;;;;;;5046705;27;90837;-59
2022/10/19 02:12:49;;;;;;;;;;;19.90;72.10;;;;;;5038772;27;90172;-59
2022/10/19 02:15:17;;;;;;;;;;;19.90;72.10;;;;;;5036919;27;90089;-59
2022/10/19 02:17:45;;;;;;;;;;;19.80;72.10;;;;;;5040995;27;91477;-59
2022/10/19 02:20:10;;;;;;;;;;;19.80;72.00;;;;;;5038019;27;93828;-59
2022/10/19 02:22:36;;;;;;;;;;;19.90;72.20;;;;;;5044561;27;90753;-60
2022/10/19 02:25:02;;;;;;;;;;;19.80;72.00;;;;;;5022663;27;91073;-59
2022/10/19 02:27:28;;;;;;;;;;;19.80;72.10;;;;;;5043274;27;91938;-59
2022/10/19 02:29:53;;;;;;;;;;;19.80;72.10;;;;;;5017013;27;90694;-59
2022/10/19 02:32:19;;;;;;;;;;;19.80;72.00;;;;;;5030045;27;90730;-59
2022/10/19 02:34:44;;;;;;;;;;;19.80;72.00;;;;;;5031287;27;90982;-59
2022/10/19 02:37:10;;;;;;;;;;;19.80;72.00;;;;;;5046957;27;94320;-58
2022/10/19 02:39:37;;;;;;;;;;;19.80;71.90;;;;;;5040990;27;89952;-59
2022/10/19 02:42:08;;;;;;;;;;;19.80;72.00;;;;;;5035252;27;90337;-59
2022/10/19 02:44:42;;;;;;;;;;;19.80;71.90;;;;;;5040574;27;90842;-59
2022/10/19 02:47:36;;;;;;;;;;;19.80;71.80;;;;;;5038211;27;92308;-61
2022/10/19 02:50:06;;;;;;;;;;;19.80;71.80;;;;;;5028653;27;89852;-59
2022/10/19 02:52:32;;;;;;;;;;;19.80;71.80;;;;;;5032705;27;90854;-59
2022/10/19 02:54:57;;;;;;;;;;;19.70;71.70;;;;;;5029465;27;93093;-60
2022/10/19 02:57:24;;;;;;;;;;;19.70;71.70;;;;;;5034993;27;91146;-59
2022/10/19 02:59:50;;;;;;;;;;;19.80;71.80;;;;;;5027171;27;90614;-59
2022/10/19 03:02:16;;;;;;;;;;;19.80;71.70;;;;;;5033286;27;90060;-58
2022/10/19 03:04:43;;;;;;;;;;;19.80;71.70;;;;;;5040152;27;90156;-59
2022/10/19 03:07:09;;;;;;;;;;;19.80;71.70;;;;;;5033663;27;90967;-59
2022/10/19 03:09:34;;;;;;;;;;;19.80;71.70;;;;;;5044914;27;92533;-58
2022/10/19 03:12:00;;;;;;;;;;;19.80;71.70;;;;;;5023243;27;90440;-59
2022/10/19 03:14:25;;;;;;;;;;;19.70;71.60;;;;;;5030533;27;96313;-59
2022/10/19 03:16:51;;;;;;;;;;;19.80;71.70;;;;;;5033128;27;91201;-59
2022/10/19 03:19:16;;;;;;;;;;;19.70;71.60;;;;;;5038766;27;90404;-58
2022/10/19 03:21:42;;;;;;;;;;;19.70;71.50;;;;;;5028964;27;90644;-59
2022/10/19 03:24:07;;;;;;;;;;;19.70;71.50;;;;;;5047108;27;89764;-59
2022/10/19 03:26:33;;;;;;;;;;;19.70;71.50;;;;;;5043147;27;90754;-59
2022/10/19 03:28:58;;;;;;;;;;;19.70;71.50;;;;;;5044318;27;90071;-58
2022/10/19 03:31:25;;;;;;;;;;;19.70;71.50;;;;;;5038293;27;90398;-59
2022/10/19 03:33:51;;;;;;;;;;;19.70;71.50;;;;;;5028223;27;95162;-59
2022/10/19 03:36:21;;;;;;;;;;;19.70;71.50;;;;;;5027897;27;89942;-57
2022/10/19 03:38:51;;;;;;;;;;;19.70;71.50;;;;;;5030487;27;89837;-57
2022/10/19 03:41:17;;;;;;;;;;;19.70;71.40;;;;;;5017310;27;91090;-59
2022/10/19 03:43:42;;;;;;;;;;;19.70;71.50;;;;;;5018572;27;90467;-59
2022/10/19 03:46:08;;;;;;;;;;;19.70;71.40;;;;;;5012291;27;89575;-58
2022/10/19 03:48:34;;;;;;;;;;;19.70;71.40;;;;;;5025619;27;89641;-59
2022/10/19 03:51:00;;;;;;;;;;;19.60;71.40;;;;;;5018249;27;90179;-58
2022/10/19 03:53:26;;;;;;;;;;;19.70;71.50;;;;;;5032681;27;90413;-60
2022/10/19 03:55:52;;;;;;;;;;;19.70;71.50;;;;;;5027473;27;90423;-59
2022/10/19 03:58:17;;;;;;;;;;;19.60;71.40;;;;;;5018515;27;91350;-59
2022/10/19 04:00:43;;;;;;;;;;;19.60;71.40;;;;;;5022370;27;91647;-58
2022/10/19 04:03:08;;;;;;;;;;;19.60;71.30;;;;;;5019651;27;89921;-59
2022/10/19 04:05:34;;;;;;;;;;;19.60;71.40;;;;;;5022306;27;92184;-59
2022/10/19 04:07:59;;;;;;;;;;;19.60;71.50;;;;;;5027327;27;90425;-59
2022/10/19 04:10:25;;;;;;;;;;;19.60;71.40;;;;;;5020515;27;90635;-59
2022/10/19 04:12:50;;;;;;;;;;;19.60;71.40;;;;;;5016597;27;89496;-59
2022/10/19 04:15:16;;;;;;;;;;;19.60;71.40;;;;;;5015486;27;91663;-60
2022/10/19 04:17:41;;;;;;;;;;;19.60;71.40;;;;;;5015268;27;93305;-59
2022/10/19 04:20:07;;;;;;;;;;;19.60;71.40;;;;;;5000988;27;90452;-59
2022/10/19 04:22:32;;;;;;;;;;;19.60;71.30;;;;;;5022312;27;96203;-58
2022/10/19 04:24:58;;;;;;;;;;;19.60;71.40;;;;;;5020925;27;90022;-59
2022/10/19 04:27:23;;;;;;;;;;;19.60;71.40;;;;;;5009664;27;91238;-59
2022/10/19 04:29:49;;;;;;;;;;;19.60;71.40;;;;;;5009694;27;91743;-59
2022/10/19 04:32:14;;;;;;;;;;;19.60;71.30;;;;;;5003870;27;90875;-59
2022/10/19 04:34:40;;;;;;;;;;;19.60;71.30;;;;;;5035297;27;89930;-57
2022/10/19 04:37:05;;;;;;;;;;;19.60;71.20;;;;;;5035406;27;89570;-59
2022/10/19 04:39:31;;;;;;;;;;;19.60;71.20;;;;;;5043558;27;92049;-59
2022/10/19 04:41:56;;;;;;;;;;;19.60;71.20;;;;;;5043709;27;89923;-59
2022/10/19 04:44:22;;;;;;;;;;;19.60;71.20;;;;;;5038577;27;90530;-59
2022/10/19 04:46:47;;;;;;;;;;;19.50;71.20;;;;;;5041647;27;89782;-58
2022/10/19 04:49:13;;;;;;;;;;;19.50;71.20;;;;;;5040753;27;90032;-60
2022/10/19 04:51:38;;;;;;;;;;;19.50;71.20;;;;;;5046092;27;91792;-58
2022/10/19 04:54:04;;;;;;;;;;;19.50;71.20;;;;;;5039724;27;91374;-60
2022/10/19 04:56:31;;;;;;;;;;;19.50;71.20;;;;;;5052505;27;90067;-59
2022/10/19 04:58:57;;;;;;;;;;;19.50;71.20;;;;;;5045512;27;90100;-59
2022/10/19 05:01:24;;;;;;;;;;;19.50;71.20;;;;;;5036462;27;94003;-60
2022/10/19 05:03:52;;;;;;;;;;;19.50;71.20;;;;;;5037989;27;89890;-60
2022/10/19 05:06:18;;;;;;;;;;;19.50;71.20;;;;;;5042840;27;90414;-59
2022/10/19 05:08:43;;;;;;;;;;;19.50;71.20;;;;;;5042498;27;89508;-58
2022/10/19 05:11:10;;;;;;;;;;;19.50;71.20;;;;;;5029507;27;89569;-58
2022/10/19 05:13:36;;;;;;;;;;;19.50;71.30;;;;;;5051081;27;90792;-61
2022/10/19 05:16:03;;;;;;;;;;;19.50;71.30;;;;;;5044674;27;90006;-59
2022/10/19 05:18:28;;;;;;;;;;;19.50;71.40;;;;;;5046116;27;91042;-60
2022/10/19 05:21:04;;;;;;;;;;;19.50;71.40;;;;;;5031665;27;91061;-59
2022/10/19 05:23:30;;;;;;;;;;;19.50;71.40;;;;;;5044888;27;91734;-59
2022/10/19 05:26:16;;;;;;;;;;;19.40;71.30;;;;;;5034442;27;91531;-58
2022/10/19 05:28:42;;;;;;;;;;;19.40;71.40;;;;;;5050617;27;90173;-59
2022/10/19 05:31:11;;;;;;;;;;;19.50;71.50;;;;;;5038133;27;90235;-59
2022/10/19 05:33:37;;;;;;;;;;;19.40;71.40;;;;;;5042000;27;94184;-59
2022/10/19 05:36:16;;;;;;;;;;;19.40;71.40;;;;;;5050196;27;89644;-58
2022/10/19 05:38:42;;;;;;;;;;;19.40;71.70;;;;;;5031168;27;92665;-57
2022/10/19 05:41:08;;;;;;;;;;;19.40;72.90;;;;;;5037810;27;91011;-57
2022/10/19 05:43:33;;;;;;;;;;;19.30;73.10;;;;;;5044203;27;91274;-57
2022/10/19 05:46:09;;;;;;;;;;;19.40;73.10;;;;;;5039852;27;90156;-59
2022/10/19 05:48:35;;;;;;;;;;;19.40;72.70;;;;;;5038876;27;91475;-59
2022/10/19 05:51:01;;;;;;;;;;;19.40;72.50;;;;;;5040482;27;89975;-58
2022/10/19 05:53:27;;;;;;;;;;;19.40;72.80;;;;;;5057129;27;90097;-56
2022/10/19 05:55:53;;;;;;;;;;;19.40;72.60;;;;;;5058264;27;96315;-57
2022/10/19 05:58:18;;;;;;;;;;;19.40;72.80;;;;;;5061939;27;90132;-58
2022/10/19 06:00:49;;;;;;;;;;;19.40;73.00;;;;;;5041623;27;89896;-58
2022/10/19 06:03:16;;;;;;;;;;;19.40;73.00;;;;;;5032276;27;90388;-56
2022/10/19 06:05:42;;;;;;;;;;;19.30;73.60;;;;;;5055667;27;90280;-59
2022/10/19 06:08:07;;;;;;;;;;;19.30;74.60;;;;;;5045477;27;93523;-53
2022/10/19 06:10:33;;;;;;;;;;;19.30;74.90;;;;;;5053392;27;90598;-53
2022/10/19 06:12:58;;;;;;;;;;;19.30;75.20;;;;;;5044871;27;90139;-54
2022/10/19 06:15:24;;;;;;;;;;;19.30;75.50;;;;;;5020420;27;90034;-57
2022/10/19 06:17:49;;;;;;;;;;;19.30;75.20;;;;;;5058734;27;91087;-58
2022/10/19 06:20:15;;;;;;;;;;;19.40;75.10;;;;;;5045724;27;89892;-54
2022/10/19 06:22:41;;;;;;;;;;;19.40;74.60;;;;;;5044003;27;90343;-57
2022/10/19 06:25:07;;;;;;;;;;;19.40;74.20;;;;;;5048998;27;94995;-55
2022/10/19 06:27:32;;;;;;;;;;;19.40;73.90;;;;;;5048486;27;90129;-55
2022/10/19 06:29:58;;;;;;;;;;;19.40;74.60;;;;;;5053959;27;89602;-58
2022/10/19 06:32:24;;;;;;;;;;;19.40;73.60;;;;;;5043292;27;91152;-56
2022/10/19 06:34:50;;;;;;;;;;;19.50;73.20;;;;;;5036194;27;97186;-57
2022/10/19 06:37:16;;;;;;;;;;;19.40;72.90;;;;;;5045868;27;91423;-58
2022/10/19 06:39:41;;;;;;;;;;;19.40;72.80;;;;;;5043998;27;90688;-58
2022/10/19 06:42:08;;;;;;;;;;;19.40;73.10;;;;;;5026062;27;90147;-59
2022/10/19 06:44:33;;;;;;;;;;;19.40;73.10;;;;;;5038734;27;91234;-58
2022/10/19 06:46:59;;;;;;;;;;;19.50;73.20;;;;;;5042701;27;90369;-59
2022/10/19 06:49:24;;;;;;;;;;;19.50;73.50;;;;;;5049917;27;90105;-59
2022/10/19 06:51:50;;;;;;;;;;;19.50;73.60;;;;;;5048748;27;90646;-58
2022/10/19 06:54:15;;;;;;;;;;;19.60;73.40;;;;;;5028234;27;92343;-58
2022/10/19 06:56:41;;;;;;;;;;;19.60;73.00;;;;;;5046197;27;90889;-59
2022/10/19 06:59:06;;;;;;;;;;;19.70;72.60;;;;;;5040992;27;90734;-59
2022/10/19 07:01:32;;;;;;;;;;;19.60;72.30;;;;;;5042403;27;89953;-59
2022/10/19 07:03:58;;;;;;;;;;;19.60;71.90;;;;;;5039606;27;90262;-58
2022/10/19 07:06:25;;;;;;;;;;;19.70;71.60;;;;;;5033413;27;93763;-60
2022/10/19 07:08:51;;;;;;;;;;;19.70;71.40;;;;;;5046874;27;92541;-58
2022/10/19 07:11:18;;;;;;;;;;;19.60;71.00;;;;;;5043741;27;90072;-58
2022/10/19 07:13:43;;;;;;;;;;;19.60;70.40;;;;;;5038480;27;90599;-59
2022/10/19 07:16:10;;;;;;;;;;;19.60;70.50;;;;;;5034572;27;92138;-59
2022/10/19 07:18:37;;;;;;;;;;;19.50;70.40;;;;;;5038493;27;90148;-59
2022/10/19 07:21:04;;;;;;;;;;;19.50;70.10;;;;;;5046209;27;94887;-58
2022/10/19 07:23:30;;;;;;;;;;;19.50;69.80;;;;;;5044412;27;90354;-57
2022/10/19 07:26:00;;;;;;;;;;;19.60;70.20;;;;;;5049255;27;93699;-54
2022/10/19 07:28:27;;;;;;;;;;;19.60;70.60;;;;;;5043877;27;91301;-59
2022/10/19 07:30:52;;;;;;;;;;;19.60;70.80;;;;;;5051147;27;90565;-60
2022/10/19 07:33:18;;;;;;;;;;;19.60;70.80;;;;;;5031583;27;89924;-59
2022/10/19 07:35:43;;;;;;;;;;;19.60;70.60;;;;;;5037604;27;90066;-62
2022/10/19 07:38:09;;;;;;;;;;;19.50;70.20;;;;;;5038578;27;89346;-59
2022/10/19 07:40:34;;;;;;;;;;;19.50;69.70;;;;;;5037191;27;90235;-59
2022/10/19 07:43:00;;;;;;;;;;;19.50;69.40;;;;;;5034460;27;89955;-60
2022/10/19 07:45:26;;;;;;;;;;;19.50;69.40;;;;;;5055190;27;95760;-59
2022/10/19 07:47:51;;;;;;;;;;;19.50;69.30;;;;;;5052409;27;89837;-59
2022/10/19 07:50:17;;;;;;;;;;;19.50;69.30;;;;;;5045126;27;89885;-58
2022/10/19 07:52:42;;;;;;;;;;;19.40;69.10;;;;;;5042084;27;89911;-59
2022/10/19 07:55:08;;;;;;;;;;;19.40;69.00;;;;;;5031954;27;90375;-59
2022/10/19 07:57:34;;;;;;;;;;;19.50;69.00;;;;;;5050781;27;90400;-58
2022/10/19 07:59:59;;;;;;;;;;;19.40;68.80;;;;;;5049575;27;89700;-58
2022/10/19 08:02:25;;;;;;;;;;;19.40;68.70;;;;;;5048593;27;89331;-58
2022/10/19 08:04:50;;;;;;;;;;;19.50;68.70;;;;;;5044915;27;89570;-59
2022/10/19 08:07:16;;;;;;;;;;;19.40;68.50;;;;;;5046094;27;90170;-58
2022/10/19 08:09:41;;;;;;;;;;;19.40;68.50;;;;;;5043753;27;90500;-59
2022/10/19 08:12:07;;;;;;;;;;;19.40;68.50;;;;;;5051584;27;90114;-58
2022/10/19 08:14:33;;;;;;;;;;;19.40;68.40;;;;;;5043816;27;89827;-58
2022/10/19 08:16:59;;;;;;;;;;;19.40;68.40;;;;;;5048139;27;90249;-58
2022/10/19 08:19:24;;;;;;;;;;;19.40;68.40;;;;;;5048286;27;89568;-59
2022/10/19 08:21:50;;;;;;;;;;;19.40;68.50;;;;;;5054176;27;90173;-58
2022/10/19 08:24:19;;;;;;;;;;;19.40;68.40;;;;;;5039648;27;96320;-59
2022/10/19 08:26:45;;;;;;;;;;;19.50;68.20;;;;;;5042560;27;92988;-58
2022/10/19 08:29:19;;;;;;;;;;;19.50;68.00;;;;;;5047289;27;90627;-59
2022/10/19 08:31:46;;;;;;;;;;;19.60;68.00;;;;;;5051634;27;89864;-58
2022/10/19 08:34:12;;;;;;;;;;;19.60;67.90;;;;;;5043854;27;94899;-58
2022/10/19 08:36:38;;;;;;;;;;;19.60;67.80;;;;;;5041849;27;90986;-58
2022/10/19 08:39:04;;;;;;;;;;;19.60;67.80;;;;;;5035225;27;91818;-59
2022/10/19 08:41:33;;;;;;;;;;;19.60;68.60;;;;;;5047593;27;92651;-59
2022/10/19 08:44:15;;;;;;;;;;;19.60;67.90;;;;;;5042399;27;90144;-59
2022/10/19 08:46:59;;;;;;;;;;;19.60;67.70;;;;;;5049135;27;89601;-59
2022/10/19 08:49:25;;;;;;;;;;;19.60;67.80;;;;;;5043664;27;90537;-60
2022/10/19 08:51:56;;;;;;;;;;;19.70;67.80;;;;;;5046369;27;89748;-62
2022/10/19 08:54:23;;;;;;;;;;;19.70;67.80;;;;;;5054541;27;90372;-59
2022/10/19 08:57:07;;;;;;;;;;;19.70;67.90;;;;;;5043998;27;90374;-58
2022/10/19 08:59:52;;;;;;;;;;;19.70;68.00;;;;;;5043340;27;90605;-58
2022/10/19 09:02:21;;;;;;;;;;;19.70;68.00;;;;;;5038458;27;90991;-59
2022/10/19 09:04:49;;;;;;;;;;;19.70;68.00;;;;;;5039507;27;90065;-59
2022/10/19 09:07:28;;;;;;;;;;;19.70;68.10;;;;;;5028624;27;89484;-58
2022/10/19 09:10:00;;;;;;;;;;;19.70;68.10;;;;;;5043871;27;89868;-60
2022/10/19 09:12:37;;;;;;;;;;;19.70;68.00;;;;;;5035710;27;90477;-59
2022/10/19 09:15:04;;;;;;;;;;;19.70;68.10;;;;;;5041380;27;90218;-58
2022/10/19 09:17:31;;;;;;;;;;;19.70;68.70;;;;;;5023138;27;89446;-58
2022/10/19 09:20:00;;;;;;;;;;;19.70;68.90;;;;;;5049159;27;90281;-59
2022/10/19 09:22:28;;;;;;;;;;;19.70;69.20;;;;;;5039418;27;89666;-51
2022/10/19 09:24:59;;;;;;;;;;;19.70;69.40;;;;;;5034772;27;92538;-55
2022/10/19 09:27:27;;;;;;;;;;;19.70;70.00;;;;;;5034306;27;93622;-56
2022/10/19 09:29:54;;;;;;;;;;;19.70;70.30;;;;;;5049737;27;90238;-58
2022/10/19 09:32:38;;;;;;;;;;;19.80;70.20;;;;;;5040599;27;90395;-58
2022/10/19 09:35:12;;;;;;;;;;;19.80;69.90;;;;;;5025362;27;90176;-58
2022/10/19 09:37:41;;;;;;;;;;;19.90;69.70;;;;;;5023133;27;89745;-58
2022/10/19 09:40:13;;;;;;;;;;;19.80;69.70;;;;;;5013994;27;89722;-53
2022/10/19 09:42:38;;;;;;;;;;;19.70;70.10;;;;;;5022206;27;89380;-56
2022/10/19 09:45:13;;;;;;;;;;;19.70;70.50;;;;;;5019102;27;89878;-56
2022/10/19 09:47:40;;;;;;;;;;;19.80;70.70;;;;;;5018061;27;90788;-56
2022/10/19 09:50:23;;;;;;;;;;;19.80;70.80;;;;;;5025345;27;90793;-53
2022/10/19 09:52:49;;;;;;;;;;;19.90;70.90;;;;;;5028553;27;90050;-58
2022/10/19 09:55:35;;;;;;;;;;;19.90;71.10;;;;;;5013079;27;95230;-54
2022/10/19 09:58:02;;;;;;;;;;;19.90;71.40;;;;;;5013137;27;89896;-58
2022/10/19 10:00:33;;;;;;;;;;;19.90;71.50;;;;;;5015088;27;91262;-55
2022/10/19 10:02:59;;;;;;;;;;;19.90;71.70;;;;;;5023811;27;90487;-56
2022/10/19 10:05:30;;;;;;;;;;;20.00;71.60;;;;;;5005857;27;94183;-57
2022/10/19 10:07:56;;;;;;;;;;;20.00;71.60;;;;;;5030818;27;89402;-57
2022/10/19 10:10:36;;;;;;;;;;;20.00;71.80;;;;;;5019438;27;90473;-58
2022/10/19 10:13:01;;;;;;;;;;;20.10;72.00;;;;;;5014783;27;98882;-60
2022/10/19 10:15:34;;;;;;;;;;;20.10;72.00;;;;;;5009994;27;91555;-59
2022/10/19 10:17:59;;;;;;;;;;;20.10;71.60;;;;;;5019495;27;89720;-59
2022/10/19 10:20:27;;;;;;;;;;;20.10;71.70;;;;;;5020796;27;89785;-62
2022/10/19 10:22:56;;;;;;;;;;;20.10;71.50;;;;;;5018036;27;89938;-60
2022/10/19 10:25:23;;;;;;;;;;;20.10;71.50;;;;;;5023118;27;90040;-58
2022/10/19 10:28:07;;;;;;;;;;;20.10;71.50;;;;;;5020343;27;90026;-58
2022/10/19 10:30:34;;;;;;;;;;;20.20;71.70;;;;;;5025374;27;92015;-63
2022/10/19 10:33:00;;;;;;;;;;;20.20;72.20;;;;;;5020767;27;89529;-64
2022/10/19 10:35:52;;;;;;;;;;;20.20;71.90;;;;;;5047228;27;91714;-64
2022/10/19 10:38:21;;;;;;;;;;;20.20;71.70;;;;;;5017309;27;90764;-63
2022/10/19 10:40:58;;;;;;;;;;;20.30;71.60;;;;;;5029429;27;91324;-62
2022/10/19 10:43:35;;;;;;;;;;;20.30;71.50;;;;;;5037790;27;89729;-63
2022/10/19 10:46:03;;;;;;;;;;;20.30;71.30;;;;;;5041524;27;90715;-63
2022/10/19 10:48:36;;;;;;;;;;;20.30;71.20;;;;;;5019789;27;90403;-64
2022/10/19 10:51:06;;;;;;;;;;;20.30;71.20;;;;;;5046167;27;89898;-63
2022/10/19 10:53:39;;;;;;;;;;;20.30;71.00;;;;;;5043404;27;89683;-62
2022/10/19 10:56:18;;;;;;;;;;;20.30;70.90;;;;;;5037748;27;89998;-63
2022/10/19 10:58:47;;;;;;;;;;;20.40;70.90;;;;;;5041888;27;92390;-63
2022/10/19 11:01:18;;;;;;;;;;;20.30;71.00;;;;;;5051334;27;89988;-63
2022/10/19 11:03:47;;;;;;;;;;;20.30;70.90;;;;;;5038082;27;89626;-62
2022/10/19 11:06:13;;;;;;;;;;;20.30;70.90;;;;;;5036717;27;91129;-59
2022/10/19 11:08:57;;;;;;;;;;;20.30;71.50;;;;;;5040193;27;90717;-61
2022/10/19 11:11:35;;;;;;;;;;;20.30;71.80;;;;;;5042518;27;91025;-58
2022/10/19 11:14:19;;;;;;;;;;;20.30;71.90;;;;;;5046360;27;89550;-59
2022/10/19 11:16:46;;;;;;;;;;;20.30;72.20;;;;;;5042508;27;93109;-59
2022/10/19 11:19:21;;;;;;;;;;;20.30;72.40;;;;;;5035452;27;90245;-57
2022/10/19 11:22:05;;;;;;;;;;;20.40;72.40;;;;;;5042805;27;89943;-59
2022/10/19 11:24:30;;;;;;;;;;;20.40;72.50;;;;;;5044878;27;89092;-59
2022/10/19 11:27:05;;;;;;;;;;;20.40;72.70;;;;;;5044438;27;89638;-61
2022/10/19 11:29:36;;;;;;;;;;;20.50;72.80;;;;;;5046502;27;90349;-59
2022/10/19 11:32:03;;;;;;;;;;;20.50;72.90;;;;;;5048692;27;92788;-60
2022/10/19 11:34:35;;;;;;;;;;;20.50;73.00;;;;;;5038447;27;90562;-61
2022/10/19 11:37:01;;;;;;;;;;;20.50;73.10;;;;;;5031963;27;91543;-59
2022/10/19 11:39:39;;;;;;;;;;;20.50;73.10;;;;;;5037155;27;93178;-59
2022/10/19 11:42:12;;;;;;;;;;;20.60;73.10;;;;;;5046089;27;90241;-59
2022/10/19 11:44:50;;;;;;;;;;;20.60;73.10;;;;;;5051141;27;90859;-59
2022/10/19 11:47:34;;;;;;;;;;;20.60;73.10;;;;;;5041388;27;90764;-58
2022/10/19 11:49:59;;;;;;;;;;;20.60;73.20;;;;;;5034953;27;89306;-57
2022/10/19 11:52:31;;;;;;;;;;;20.60;73.10;;;;;;5042833;27;91423;-57
2022/10/19 11:55:06;;;;;;;;;;;20.70;73.20;;;;;;5043567;27;90493;-58
2022/10/19 11:57:37;;;;;;;;;;;20.70;73.30;;;;;;5051733;27;91305;-59
2022/10/19 12:00:03;;;;;;;;;;;20.70;73.40;;;;;;5035846;27;90832;-59
2022/10/19 12:02:47;;;;;;;;;;;20.70;73.50;;;;;;5037852;27;90115;-63
2022/10/19 12:05:26;;;;;;;;;;;20.70;73.60;;;;;;5045816;27;91340;-60
2022/10/19 12:08:10;;;;;;;;;;;20.70;72.50;;;;;;5019492;27;90657;-60
2022/10/19 12:10:36;;;;;;;;;;;20.70;72.80;;;;;;4999550;27;92390;-67
2022/10/19 12:13:03;;;;;;;;;;;20.60;71.80;;;;;;5018453;27;90121;-67
2022/10/19 12:15:37;;;;;;;;;;;20.60;71.90;;;;;;5029600;27;89397;-65
2022/10/19 12:18:09;;;;;;;;;;;20.40;71.70;;;;;;5014918;27;96218;-67
2022/10/19 12:20:41;;;;;;;;;;;20.40;71.80;;;;;;5036463;27;90791;-58
2022/10/19 12:23:16;;;;;;;;;;;20.40;71.10;;;;;;5037418;27;91426;-58
2022/10/19 12:25:43;;;;;;;;;;;20.40;70.90;;;;;;5035278;27;90530;-58
2022/10/19 12:28:13;;;;;;;;;;;20.30;70.80;;;;;;5049541;27;90330;-58
2022/10/19 12:30:38;;;;;;;;;;;20.30;70.60;;;;;;5046792;27;90266;-58
2022/10/19 12:33:21;;;;;;;;;;;20.30;70.80;;;;;;5036042;27;93596;-57
2022/10/19 12:35:51;;;;;;;;;;;20.30;70.90;;;;;;5033282;27;97233;-61
2022/10/19 12:38:37;;;;;;;;;;;20.30;70.80;;;;;;5049997;27;90366;-57
2022/10/19 12:41:07;;;;;;;;;;;20.40;70.70;;;;;;5040694;27;88956;-57
2022/10/19 12:43:54;;;;;;;;;;;20.40;70.70;;;;;;5041178;27;89934;-57
2022/10/19 12:46:20;;;;;;;;;;;20.40;70.70;;;;;;5046692;27;89815;-58
2022/10/19 12:49:05;;;;;;;;;;;20.30;70.70;;;;;;5035758;27;91852;-57
2022/10/19 12:51:43;;;;;;;;;;;20.30;70.70;;;;;;5039757;27;90603;-57
2022/10/19 12:54:08;;;;;;;;;;;20.30;70.70;;;;;;5038594;27;91054;-56
2022/10/19 12:56:45;;;;;;;;;;;20.30;70.60;;;;;;5041168;27;90362;-57
2022/10/19 12:59:19;;;;;;;;;;;20.30;70.90;;;;;;5040512;27;90838;-57
2022/10/19 13:01:45;;;;;;;;;;;20.30;70.60;;;;;;5038192;27;89769;-58
2022/10/19 13:04:12;;;;;;;;;;;20.30;70.90;;;;;;5031347;27;91768;-57
2022/10/19 13:06:41;;;;;;;;;;;20.30;71.00;;;;;;5041802;27;89805;-56
2022/10/19 13:09:07;;;;;;;;;;;20.30;71.00;;;;;;5038350;27;90199;-56
2022/10/19 13:11:34;;;;;;;;;;;20.30;71.00;;;;;;5040498;27;93150;-56
2022/10/19 13:14:01;;;;;;;;;;;20.30;71.00;;;;;;5041655;27;95352;-58
2022/10/19 13:16:31;;;;;;;;;;;20.30;71.00;;;;;;5041005;27;90040;-57
2022/10/19 13:19:16;;;;;;;;;;;20.30;71.00;;;;;;5041283;27;89897;-57
2022/10/19 13:22:01;;;;;;;;;;;20.30;71.00;;;;;;5047187;27;89838;-57
2022/10/19 13:24:27;;;;;;;;;;;20.30;71.00;;;;;;5043196;27;89426;-58
2022/10/19 13:27:01;;;;;;;;;;;20.30;70.90;;;;;;5042759;27;90406;-57
2022/10/19 13:29:38;;;;;;;;;;;20.30;71.10;;;;;;5041155;27;89960;-57
2022/10/19 13:32:22;;;;;;;;;;;20.30;71.20;;;;;;5045834;27;89279;-56
2022/10/19 13:34:47;;;;;;;;;;;20.30;71.20;;;;;;5043003;27;90744;-58
2022/10/19 13:37:15;;;;;;;;;;;20.30;71.10;;;;;;5043882;27;90101;-56
2022/10/19 13:39:41;;;;;;;;;;;20.30;71.10;;;;;;5037697;27;91875;-56
2022/10/19 13:42:21;;;;;;;;;;;20.20;71.20;;;;;;5038565;27;90630;-55
2022/10/19 13:44:46;;;;;;;;;;;20.30;71.30;;;;;;5043020;27;89521;-55
2022/10/19 13:47:22;;;;;;;;;;;20.30;71.20;;;;;;5039732;27;90293;-55
2022/10/19 13:49:53;;;;;;;;;;;20.30;71.30;;;;;;5036176;27;89544;-61
2022/10/19 13:52:30;;;;;;;;;;;20.30;71.80;;;;;;5051283;27;89828;-59
2022/10/19 13:55:31;;;;;;;;;;;20.30;71.80;;;;;;5053706;27;90007;-64
2022/10/19 13:58:15;;;;;;;;;;;20.40;71.80;;;;;;4966378;28;89485;-60
2022/10/19 14:00:59;;;;;;;;;;;20.40;71.80;;;;;;5042192;27;94947;-57
2022/10/19 14:03:34;;;;;;;;;;;20.40;71.90;;;;;;5043257;27;92373;-58
2022/10/19 14:06:07;;;;;;;;;;;20.40;71.90;;;;;;5037229;27;93959;-58
2022/10/19 14:08:33;;;;;;;;;;;20.50;72.00;;;;;;5044896;27;89626;-58
2022/10/19 14:11:11;;;;;;;;;;;20.40;71.70;;;;;;5041584;27;92014;-60
2022/10/19 14:13:36;;;;;;;;;;;20.40;71.50;;;;;;5043983;27;90568;-58
2022/10/19 14:16:02;;;;;;;;;;;20.50;71.50;;;;;;5041935;27;90060;-57
2022/10/19 14:18:30;;;;;;;;;;;20.50;71.60;;;;;;5045608;27;89441;-57
2022/10/19 14:21:05;;;;;;;;;;;20.50;71.60;;;;;;5044093;27;94005;-57
2022/10/19 14:23:33;;;;;;;;;;;20.50;71.70;;;;;;5047195;27;96444;-58
2022/10/19 14:26:01;;;;;;;;;;;20.50;71.60;;;;;;5045390;27;90240;-56
2022/10/19 14:28:27;;;;;;;;;;;20.50;71.70;;;;;;5044810;27;90658;-55